Time;durP1;ratioP1;P1;durP2;ratioP2;P2;SDS_P1;SDS_P2;PMS_P1;PMS_P2;Temp;Humidity;BMP_temperature;BMP_pressure;BME280_temperature;BME280_humidity;BME280_pressure;Samples;Min_cycle;Max_cycle;Signal;HPM_P1;HPM_P2
2023/10/15 00:00:13;;;;;;;18.63;3.45;;;8.70;99.90;;;;;;5131246;27;20058;-83
2023/10/15 00:02:41;;;;;;;31.58;3.75;;;8.60;99.90;;;;;;5117623;27;20776;-86
2023/10/15 00:05:12;;;;;;;21.73;3.72;;;8.60;99.90;;;;;;5117030;27;20015;-84
2023/10/15 00:07:41;;;;;;;19.75;3.75;;;8.60;99.90;;;;;;5112490;27;20033;-84
2023/10/15 00:10:10;;;;;;;26.48;4.10;;;8.60;99.90;;;;;;5127550;27;20050;-84
2023/10/15 00:12:37;;;;;;;16.67;3.22;;;8.60;99.90;;;;;;5128591;27;20349;-83
2023/10/15 00:15:05;;;;;;;24.92;4.10;;;8.60;99.90;;;;;;5132642;27;20108;-86
2023/10/15 00:17:30;;;;;;;29.02;3.75;;;8.60;99.90;;;;;;5098660;27;20448;-88
2023/10/15 00:19:56;;;;;;;39.15;5.65;;;8.60;99.90;;;;;;5126527;27;20029;-84
2023/10/15 00:22:25;;;;;;;31.75;5.05;;;8.60;99.90;;;;;;5122163;27;20017;-83
2023/10/15 00:24:50;;;;;;;20.40;3.13;;;8.60;99.90;;;;;;5135243;27;20030;-85
2023/10/15 00:27:20;;;;;;;26.80;3.60;;;8.60;99.90;;;;;;5129032;27;20019;-85
2023/10/15 00:29:48;;;;;;;27.65;3.75;;;8.60;99.90;;;;;;5130061;27;20028;-85
2023/10/15 00:32:13;;;;;;;15.85;3.60;;;8.60;99.90;;;;;;5121122;27;20055;-83
2023/10/15 00:34:39;;;;;;;19.48;4.05;;;8.60;99.90;;;;;;5127788;27;20019;-84
2023/10/15 00:37:05;;;;;;;30.98;3.90;;;8.50;99.90;;;;;;5127619;27;20059;-84
2023/10/15 00:39:31;;;;;;;21.30;4.00;;;8.50;99.90;;;;;;5126049;27;20023;-85
2023/10/15 00:41:56;;;;;;;21.48;3.78;;;8.50;99.90;;;;;;5127241;27;20019;-86
2023/10/15 00:44:22;;;;;;;21.88;3.08;;;8.50;99.90;;;;;;5135158;27;20061;-82
2023/10/15 00:46:54;;;;;;;22.58;4.28;;;8.50;99.90;;;;;;5125378;27;20043;-85
2023/10/15 00:49:27;;;;;;;36.28;3.70;;;8.50;99.90;;;;;;5135533;27;20027;-86
2023/10/15 00:51:53;;;;;;;21.65;4.82;;;8.40;99.90;;;;;;5119402;27;20020;-89
2023/10/15 00:54:19;;;;;;;22.63;3.55;;;8.50;99.90;;;;;;5140330;27;20371;-81
2023/10/15 00:56:48;;;;;;;17.75;3.28;;;8.40;99.90;;;;;;5135248;27;20502;-83
2023/10/15 00:59:17;;;;;;;28.73;4.65;;;8.40;99.90;;;;;;5136070;27;20079;-85
2023/10/15 01:04:31;;;;;;;25.15;3.08;;;8.40;99.90;;;;;;5129435;27;20416;-84
2023/10/15 01:07:00;;;;;;;21.50;3.88;;;8.40;99.90;;;;;;5130346;27;20097;-85
2023/10/15 01:09:29;;;;;;;23.30;4.38;;;8.30;99.90;;;;;;5127260;27;20564;-84
2023/10/15 01:11:56;;;;;;;18.52;3.05;;;8.40;99.90;;;;;;5139573;27;20023;-85
2023/10/15 01:14:31;;;;;;;23.73;3.88;;;8.40;99.90;;;;;;5131308;27;20399;-85
2023/10/15 01:16:59;;;;;;;20.50;3.58;;;8.40;99.90;;;;;;5127758;27;20023;-83
2023/10/15 01:19:32;;;;;;;28.67;3.80;;;8.40;99.90;;;;;;5125189;27;20034;-85
2023/10/15 01:22:02;;;;;;;20.58;3.47;;;8.40;99.90;;;;;;5125449;27;20039;-84
2023/10/15 01:24:28;;;;;;;25.45;3.60;;;8.40;99.90;;;;;;5132027;27;20471;-85
2023/10/15 01:29:55;;;;;;;16.08;3.22;;;8.30;99.90;;;;;;5124361;27;20015;-84
2023/10/15 01:32:21;;;;;;;25.15;3.38;;;8.30;99.90;;;;;;5133094;27;20467;-88
2023/10/15 01:34:50;;;;;;;35.50;4.95;;;8.30;99.90;;;;;;5128358;27;20119;-87
2023/10/15 01:39:51;;;;;;;22.70;4.32;;;8.20;99.90;;;;;;5128151;27;20079;-87
2023/10/15 01:50:23;;;;;;;39.17;4.13;;;8.20;99.90;;;;;;5121867;27;20031;-84
2023/10/15 01:52:50;;;;;;;33.72;4.05;;;8.10;99.90;;;;;;5128341;27;20021;-86
2023/10/15 01:55:17;;;;;;;20.48;3.35;;;8.10;99.90;;;;;;5127682;27;20022;-84
2023/10/15 01:57:43;;;;;;;15.63;3.17;;;8.10;99.90;;;;;;5121900;27;20622;-84
2023/10/15 02:02:56;;;;;;;31.77;6.05;;;8.10;99.90;;;;;;5137372;27;20481;-82
2023/10/15 02:05:40;;;;;;;27.58;3.83;;;8.10;99.90;;;;;;5124865;27;20019;-84
2023/10/15 02:08:13;;;;;;;27.90;4.30;;;8.10;99.90;;;;;;5136601;27;20031;-93
2023/10/15 02:10:46;;;;;;;21.38;3.97;;;8.10;99.90;;;;;;5126954;27;20054;-86
2023/10/15 02:13:17;;;;;;;28.83;3.45;;;8.10;99.90;;;;;;5127539;27;20034;-88
2023/10/15 02:15:43;;;;;;;24.63;4.40;;;8.10;99.90;;;;;;5131940;27;20352;-84
2023/10/15 02:18:14;;;;;;;27.38;3.92;;;8.10;99.90;;;;;;5124040;27;20404;-85
2023/10/15 02:20:47;;;;;;;28.67;3.55;;;8.10;99.90;;;;;;5124151;27;20023;-82
2023/10/15 02:23:15;;;;;;;19.55;3.65;;;8.00;99.90;;;;;;5137941;27;20080;-83
2023/10/15 02:25:52;;;;;;;26.77;3.30;;;8.00;99.90;;;;;;5134178;27;20063;-84
2023/10/15 02:28:31;;;;;;;35.70;4.45;;;8.00;99.90;;;;;;5134861;27;20413;-81
2023/10/15 02:33:33;;;;;;;37.50;6.90;;;8.00;99.90;;;;;;5131565;27;20074;-83
2023/10/15 02:35:59;;;;;;;22.17;4.00;;;7.90;99.90;;;;;;5124556;27;20475;-83
2023/10/15 02:38:34;;;;;;;27.50;3.78;;;7.90;99.90;;;;;;5127271;27;20045;-82
2023/10/15 02:43:29;;;;;;;32.08;4.15;;;7.90;99.90;;;;;;5132352;27;20031;-84
2023/10/15 02:46:12;;;;;;;20.35;3.50;;;7.90;99.90;;;;;;5124725;27;20365;-89
2023/10/15 02:48:41;;;;;;;17.58;3.30;;;7.90;99.90;;;;;;5131857;27;20029;-83
2023/10/15 02:51:19;;;;;;;22.35;4.82;;;7.90;99.90;;;;;;5124842;27;20048;-83
2023/10/15 02:56:59;;;;;;;20.55;4.10;;;7.80;99.90;;;;;;5070306;27;20151;-83
2023/10/15 02:59:29;;;;;;;20.92;3.83;;;7.80;99.90;;;;;;5127664;27;20023;-86
2023/10/15 03:01:56;;;;;;;23.45;4.50;;;7.80;99.90;;;;;;5134885;27;20026;-84
2023/10/15 03:04:37;;;;;;;17.83;3.60;;;7.70;99.90;;;;;;5134440;27;20058;-86
2023/10/15 03:09:56;;;;;;;26.42;3.58;;;7.70;99.90;;;;;;5131511;27;20489;-85
2023/10/15 03:12:24;;;;;;;24.55;4.18;;;7.60;99.90;;;;;;5138393;27;20026;-82
2023/10/15 03:14:51;;;;;;;22.10;3.63;;;7.60;99.90;;;;;;5125397;27;20035;-82
2023/10/15 03:17:29;;;;;;;25.67;3.45;;;7.60;99.90;;;;;;5125358;27;20019;-81
2023/10/15 03:20:49;;;;;;;27.58;5.38;;;7.60;99.90;;;;;;5125712;27;20553;-84
2023/10/15 03:22:45;;;;;;;21.58;4.15;;;7.60;99.90;;;;;;5114895;27;20042;-82
2023/10/15 03:25:14;;;;;;;19.73;4.28;;;7.60;99.90;;;;;;5137845;27;20043;-83
2023/10/15 03:27:41;;;;;;;28.80;4.03;;;7.60;99.90;;;;;;5132227;27;20447;-79
2023/10/15 03:30:09;;;;;;;33.03;6.10;;;7.50;99.90;;;;;;5128734;27;20455;-81
2023/10/15 03:32:41;;;;;;;24.60;4.10;;;7.50;99.90;;;;;;5127852;27;20122;-83
2023/10/15 03:35:27;;;;;;;17.40;4.35;;;7.50;99.90;;;;;;5116403;27;20035;-82
2023/10/15 03:37:59;;;;;;;24.58;4.22;;;7.40;99.90;;;;;;5122808;27;20117;-86
2023/10/15 03:40:39;;;;;;;32.75;4.47;;;7.40;99.90;;;;;;5123170;27;20075;-82
2023/10/15 03:43:07;;;;;;;25.85;4.10;;;7.40;99.90;;;;;;5119353;27;20031;-86
2023/10/15 03:45:40;;;;;;;31.15;4.32;;;7.50;99.90;;;;;;5115079;27;20076;-85
2023/10/15 03:48:09;;;;;;;25.80;4.30;;;7.50;99.90;;;;;;5122063;27;20016;-84
2023/10/15 03:50:44;;;;;;;26.92;4.53;;;7.50;99.90;;;;;;5125048;27;20072;-83
2023/10/15 03:53:09;;;;;;;24.75;4.15;;;7.50;99.90;;;;;;5122945;27;20027;-85
2023/10/15 03:55:35;;;;;;;19.77;3.92;;;7.50;99.90;;;;;;5124093;27;20552;-84
2023/10/15 03:58:01;;;;;;;22.80;3.17;;;7.50;99.90;;;;;;5128986;27;20027;-87
2023/10/15 04:00:35;;;;;;;19.40;4.13;;;7.50;99.90;;;;;;5128888;27;20603;-85
2023/10/15 04:03:14;;;;;;;19.90;4.05;;;7.50;99.90;;;;;;5117801;27;20092;-84
2023/10/15 04:05:53;;;;;;;22.45;4.75;;;7.50;99.90;;;;;;5123822;27;20076;-85
2023/10/15 04:08:19;;;;;;;22.45;3.83;;;7.40;99.90;;;;;;5124061;27;20357;-85
2023/10/15 04:10:55;;;;;;;17.52;3.15;;;7.40;99.90;;;;;;5123904;27;20076;-87
2023/10/15 04:13:21;;;;;;;17.75;3.40;;;7.30;99.90;;;;;;5123176;27;20011;-86
2023/10/15 04:15:50;;;;;;;19.35;4.32;;;7.40;99.90;;;;;;5124646;27;20113;-86
2023/10/15 04:18:17;;;;;;;23.65;3.95;;;7.40;99.90;;;;;;5134369;27;20018;-83
2023/10/15 04:20:42;;;;;;;22.70;4.75;;;7.40;99.90;;;;;;5126451;27;20030;-84
2023/10/15 04:23:21;;;;;;;23.45;3.88;;;7.30;99.90;;;;;;5128253;27;20383;-83
2023/10/15 04:25:47;;;;;;;15.73;4.38;;;7.30;99.90;;;;;;5125615;27;20049;-86
2023/10/15 04:28:19;;;;;;;15.18;3.33;;;7.40;99.90;;;;;;5104306;28;20441;-82
2023/10/15 04:30:46;;;;;;;24.75;4.80;;;7.40;99.90;;;;;;5127414;27;20303;-86
2023/10/15 04:33:15;;;;;;;26.10;4.05;;;7.40;99.90;;;;;;5125852;27;20035;-85
2023/10/15 04:35:41;;;;;;;24.55;4.45;;;7.40;99.90;;;;;;5122055;27;20022;-86
2023/10/15 04:38:07;;;;;;;30.20;4.57;;;7.40;99.90;;;;;;5126580;27;20096;-84
2023/10/15 04:40:48;;;;;;;24.02;3.58;;;7.40;99.90;;;;;;5102475;28;20394;-84
2023/10/15 04:43:14;;;;;;;26.88;4.15;;;7.40;99.90;;;;;;5113789;27;20262;-85
2023/10/15 04:45:44;;;;;;;20.40;3.10;;;7.30;99.90;;;;;;5133722;27;20336;-85
2023/10/15 04:48:16;;;;;;;23.98;4.07;;;7.40;99.90;;;;;;5126852;27;20083;-84
2023/10/15 04:50:50;;;;;;;15.82;3.85;;;7.40;99.90;;;;;;5126147;27;20327;-84
2023/10/15 04:53:23;;;;;;;24.60;4.47;;;7.50;99.90;;;;;;5127068;27;20034;-88
2023/10/15 04:55:51;;;;;;;21.08;3.63;;;7.40;99.90;;;;;;5126577;27;20095;-83
2023/10/15 04:58:18;;;;;;;19.25;4.18;;;7.50;99.90;;;;;;5134632;27;20358;-85
2023/10/15 05:00:47;;;;;;;30.83;4.40;;;7.50;99.90;;;;;;5132527;27;20029;-84
2023/10/15 05:03:15;;;;;;;20.77;4.75;;;7.50;99.90;;;;;;5138583;27;20023;-87
2023/10/15 05:05:50;;;;;;;25.50;4.32;;;7.50;99.90;;;;;;5138292;27;20019;-86
2023/10/15 05:08:17;;;;;;;23.42;4.30;;;7.50;99.90;;;;;;5122232;27;20109;-89
2023/10/15 05:10:49;;;;;;;24.67;4.93;;;7.50;99.90;;;;;;5131682;27;20383;-83
2023/10/15 05:13:16;;;;;;;24.95;4.35;;;7.60;99.90;;;;;;5136093;27;20035;-83
2023/10/15 05:15:49;;;;;;;28.98;5.32;;;7.60;99.90;;;;;;5126485;27;20230;-84
2023/10/15 05:18:15;;;;;;;17.98;4.38;;;7.60;99.90;;;;;;5122120;27;20300;-84
2023/10/15 05:20:43;;;;;;;17.27;3.90;;;7.60;99.90;;;;;;5131471;27;20011;-83
2023/10/15 05:23:10;;;;;;;29.92;4.80;;;7.60;99.90;;;;;;5132040;27;20033;-84
2023/10/15 05:25:39;;;;;;;17.17;4.70;;;7.60;99.90;;;;;;5134910;27;20022;-84
2023/10/15 05:28:06;;;;;;;27.35;4.18;;;7.60;99.90;;;;;;5130406;27;20408;-88
2023/10/15 05:30:35;;;;;;;14.60;4.05;;;7.60;99.90;;;;;;5117838;27;20089;-88
2023/10/15 05:33:01;;;;;;;16.00;3.95;;;7.60;99.90;;;;;;5126459;27;20383;-82
2023/10/15 05:35:34;;;;;;;28.63;4.63;;;7.50;99.90;;;;;;5127243;27;20459;-85
2023/10/15 05:38:01;;;;;;;16.08;4.03;;;7.60;99.90;;;;;;5115397;27;20050;-81
2023/10/15 05:40:27;;;;;;;26.27;4.72;;;7.60;99.90;;;;;;5108844;27;20053;-82
2023/10/15 05:42:53;;;;;;;18.48;4.85;;;7.50;99.90;;;;;;5123260;27;20401;-83
2023/10/15 05:45:21;;;;;;;14.70;3.40;;;7.50;99.90;;;;;;5131842;27;20054;-85
2023/10/15 05:47:50;;;;;;;20.00;4.00;;;7.50;99.90;;;;;;5122052;27;20061;-84
2023/10/15 05:50:16;;;;;;;13.55;3.63;;;7.60;99.90;;;;;;5116043;27;20503;-85
2023/10/15 05:52:42;;;;;;;31.85;4.50;;;7.50;99.90;;;;;;5120484;27;20026;-87
2023/10/15 05:55:11;;;;;;;11.27;2.70;;;7.50;99.90;;;;;;5120519;27;20027;-84
2023/10/15 05:57:37;;;;;;;12.40;3.65;;;7.50;99.90;;;;;;5122120;27;20469;-85
2023/10/15 06:00:18;;;;;;;9.52;2.53;;;7.40;99.90;;;;;;5134247;27;20118;-86
2023/10/15 06:02:56;;;;;;;17.45;2.90;;;7.40;99.90;;;;;;5122733;27;20034;-89
2023/10/15 06:05:22;;;;;;;11.25;2.95;;;7.40;99.90;;;;;;5125600;27;20026;-86
2023/10/15 06:07:48;;;;;;;12.73;2.42;;;7.40;99.90;;;;;;5116052;27;20054;-87
2023/10/15 06:10:15;;;;;;;14.85;3.75;;;7.30;99.90;;;;;;5135943;27;20034;-88
2023/10/15 06:12:42;;;;;;;11.65;2.30;;;7.40;99.90;;;;;;5118266;27;20106;-91
2023/10/15 06:15:09;;;;;;;10.27;2.45;;;7.30;99.90;;;;;;5127261;27;20026;-83
2023/10/15 06:17:36;;;;;;;10.82;3.25;;;7.30;99.90;;;;;;5125926;27;20045;-83
2023/10/15 06:20:14;;;;;;;14.32;2.33;;;7.30;99.90;;;;;;5123457;27;20018;-84
2023/10/15 06:22:49;;;;;;;3.63;1.70;;;7.30;99.90;;;;;;5127473;27;20096;-83
2023/10/15 06:25:18;;;;;;;7.18;2.10;;;7.30;99.90;;;;;;5122992;27;20061;-85
2023/10/15 06:27:44;;;;;;;18.92;3.30;;;7.30;99.90;;;;;;5133426;27;20023;-85
2023/10/15 06:30:14;;;;;;;10.82;2.47;;;7.30;99.90;;;;;;5126918;27;20033;-83
2023/10/15 06:32:44;;;;;;;9.52;2.20;;;7.30;99.90;;;;;;5122100;27;20043;-86
2023/10/15 06:35:18;;;;;;;10.98;2.22;;;7.40;99.90;;;;;;5119004;27;20417;-86
2023/10/15 06:37:47;;;;;;;6.05;2.03;;;7.40;99.90;;;;;;5130364;27;20027;-85
2023/10/15 06:40:14;;;;;;;8.90;2.30;;;7.40;99.90;;;;;;5133305;27;20042;-81
2023/10/15 06:42:43;;;;;;;13.48;2.20;;;7.30;99.90;;;;;;5135972;27;20029;-83
2023/10/15 06:45:11;;;;;;;8.18;2.33;;;7.40;99.90;;;;;;5133130;27;20485;-85
2023/10/15 06:47:38;;;;;;;10.60;3.30;;;7.40;99.90;;;;;;5135210;27;20509;-86
2023/10/15 06:50:06;;;;;;;7.40;2.08;;;7.40;99.90;;;;;;5114700;27;20031;-85
2023/10/15 06:52:38;;;;;;;13.45;2.85;;;7.40;99.90;;;;;;5114701;27;20027;-84
2023/10/15 06:55:19;;;;;;;11.55;2.70;;;7.40;99.90;;;;;;5117044;27;20039;-86
2023/10/15 06:57:46;;;;;;;11.35;2.58;;;7.40;99.90;;;;;;5124805;27;20434;-82
2023/10/15 07:00:21;;;;;;;19.88;4.70;;;7.40;99.90;;;;;;5134892;27;20034;-86
2023/10/15 07:02:47;;;;;;;6.97;2.58;;;7.40;99.90;;;;;;5129259;27;20012;-84
2023/10/15 07:05:13;;;;;;;10.52;2.50;;;7.50;99.90;;;;;;5130066;27;20041;-86
2023/10/15 07:07:38;;;;;;;15.23;2.75;;;7.50;99.90;;;;;;5124727;27;20393;-89
2023/10/15 07:10:07;;;;;;;8.32;2.38;;;7.50;99.90;;;;;;5122780;27;20030;-90
2023/10/15 07:12:34;;;;;;;7.50;2.22;;;7.50;99.90;;;;;;5132971;27;20018;-88
2023/10/15 07:15:00;;;;;;;16.95;2.67;;;7.60;99.90;;;;;;5121265;27;20020;-88
2023/10/15 07:17:25;;;;;;;5.10;1.80;;;7.70;99.90;;;;;;5121154;27;20026;-86
2023/10/15 07:19:51;;;;;;;10.27;2.00;;;7.80;99.90;;;;;;5131737;27;20054;-84
2023/10/15 07:22:17;;;;;;;11.70;3.63;;;7.90;99.90;;;;;;5132374;27;20369;-92
2023/10/15 07:24:42;;;;;;;8.65;2.72;;;7.90;99.90;;;;;;5111468;27;20459;-85
2023/10/15 07:27:08;;;;;;;7.53;2.00;;;8.00;99.90;;;;;;5124620;27;20027;-87
2023/10/15 07:29:34;;;;;;;10.60;2.13;;;8.00;99.90;;;;;;5127042;27;20023;-85
2023/10/15 07:31:59;;;;;;;9.90;1.88;;;8.00;99.90;;;;;;5127342;27;20050;-86
2023/10/15 07:34:28;;;;;;;9.88;1.95;;;8.00;99.90;;;;;;5134566;27;20584;-82
2023/10/15 07:36:56;;;;;;;10.68;2.30;;;8.00;99.90;;;;;;5127800;27;20400;-83
2023/10/15 07:39:25;;;;;;;9.73;2.35;;;8.00;99.90;;;;;;5125005;27;20026;-83
2023/10/15 07:41:51;;;;;;;10.73;1.88;;;8.00;99.90;;;;;;5129217;27;20058;-85
2023/10/15 07:44:18;;;;;;;10.73;2.05;;;8.00;99.90;;;;;;5113229;27;20038;-83
2023/10/15 07:46:43;;;;;;;8.63;2.20;;;8.00;99.90;;;;;;5129105;27;20105;-84
2023/10/15 07:49:12;;;;;;;7.13;1.85;;;8.00;99.90;;;;;;5128617;27;20024;-85
2023/10/15 07:51:38;;;;;;;11.05;2.03;;;8.10;99.90;;;;;;5121329;27;20352;-85
2023/10/15 07:54:04;;;;;;;8.23;2.58;;;8.10;99.90;;;;;;5122597;27;20378;-87
2023/10/15 07:56:31;;;;;;;4.18;1.40;;;8.10;99.90;;;;;;5120032;27;20015;-85
2023/10/15 07:58:57;;;;;;;8.80;2.15;;;8.20;99.90;;;;;;5104689;28;20023;-84
2023/10/15 08:01:25;;;;;;;8.20;1.80;;;8.10;99.90;;;;;;5124287;27;20050;-83
2023/10/15 08:03:51;;;;;;;11.77;2.50;;;8.20;99.90;;;;;;5125085;27;20391;-85
2023/10/15 08:06:16;;;;;;;5.22;1.58;;;8.20;99.90;;;;;;5125222;27;20030;-85
2023/10/15 08:08:43;;;;;;;5.85;1.60;;;8.20;99.90;;;;;;5121341;27;20256;-85
2023/10/15 08:11:08;;;;;;;7.00;1.48;;;8.20;99.90;;;;;;5115128;27;20020;-82
2023/10/15 08:13:34;;;;;;;6.70;1.70;;;8.20;99.90;;;;;;5120401;27;20099;-82
2023/10/15 08:15:59;;;;;;;5.03;1.23;;;8.20;99.90;;;;;;5122254;27;20110;-80
2023/10/15 08:18:26;;;;;;;4.97;1.73;;;8.10;99.90;;;;;;5127328;27;20019;-86
2023/10/15 08:20:52;;;;;;;9.63;1.88;;;8.10;99.90;;;;;;5139913;27;20037;-82
2023/10/15 08:23:18;;;;;;;6.60;1.52;;;8.10;99.90;;;;;;5139990;27;20115;-83
2023/10/15 08:25:44;;;;;;;8.27;1.40;;;8.00;99.90;;;;;;5137965;27;20439;-82
2023/10/15 08:28:10;;;;;;;7.03;1.40;;;8.10;99.90;;;;;;5125669;27;20041;-84
2023/10/15 08:30:36;;;;;;;5.88;1.67;;;8.10;99.90;;;;;;5121930;27;20031;-81
2023/10/15 08:33:03;;;;;;;9.23;1.80;;;8.10;99.90;;;;;;5133253;27;20491;-80
2023/10/15 08:35:30;;;;;;;9.50;1.70;;;8.20;99.90;;;;;;5125855;27;20023;-81
2023/10/15 08:37:59;;;;;;;5.07;2.00;;;8.20;99.90;;;;;;5135030;27;20031;-83
2023/10/15 08:40:26;;;;;;;4.03;1.35;;;8.20;99.90;;;;;;5139005;27;20035;-81
2023/10/15 08:43:13;;;;;;;5.05;1.17;;;8.20;99.90;;;;;;5134589;27;20100;-82
2023/10/15 08:45:42;;;;;;;3.40;1.40;;;8.30;99.90;;;;;;5136922;27;20035;-83
2023/10/15 08:48:11;;;;;;;3.92;1.30;;;8.30;99.90;;;;;;5131125;27;20023;-83
2023/10/15 08:50:37;;;;;;;5.85;2.17;;;8.40;99.90;;;;;;5125169;27;20194;-84
2023/10/15 08:53:10;;;;;;;4.38;1.80;;;8.50;99.90;;;;;;5128661;27;20053;-83
2023/10/15 08:55:36;;;;;;;5.25;1.40;;;8.50;99.90;;;;;;5138334;27;20110;-83
2023/10/15 08:58:06;;;;;;;6.03;1.55;;;8.60;99.90;;;;;;5121091;27;20061;-86
2023/10/15 09:00:32;;;;;;;5.35;1.35;;;8.70;99.90;;;;;;5127076;27;20043;-84
2023/10/15 09:03:02;;;;;;;3.60;1.40;;;8.90;99.90;;;;;;5136958;27;20035;-82
2023/10/15 09:05:37;;;;;;;10.75;1.80;;;9.00;99.90;;;;;;5112509;27;20387;-87
2023/10/15 09:08:07;;;;;;;5.45;1.45;;;9.10;99.90;;;;;;5125876;27;20031;-84
2023/10/15 09:10:35;;;;;;;14.50;1.80;;;9.20;99.90;;;;;;5112043;27;20027;-86
2023/10/15 09:13:00;;;;;;;10.52;1.52;;;9.20;99.90;;;;;;5124810;27;20023;-85
2023/10/15 09:15:32;;;;;;;10.35;2.05;;;9.20;99.90;;;;;;5131081;27;20083;-88
2023/10/15 09:17:59;;;;;;;7.95;1.90;;;9.10;99.90;;;;;;5135055;27;20023;-85
2023/10/15 09:20:32;;;;;;;9.15;3.13;;;9.00;99.90;;;;;;5126707;27;20048;-86
2023/10/15 09:23:00;;;;;;;20.52;1.77;;;8.90;99.90;;;;;;5127063;27;20468;-84
2023/10/15 09:25:26;;;;;;;9.45;1.92;;;8.90;99.90;;;;;;5137664;27;20035;-86
2023/10/15 09:27:56;;;;;;;10.65;1.60;;;8.90;99.90;;;;;;5118816;27;20035;-83
2023/10/15 09:30:23;;;;;;;8.10;1.73;;;9.00;99.90;;;;;;5130116;27;20076;-85
2023/10/15 09:32:48;;;;;;;5.15;1.17;;;9.10;99.90;;;;;;5138298;27;20134;-84
2023/10/15 09:35:14;;;;;;;7.97;1.55;;;9.20;99.90;;;;;;5128996;27;20114;-85
2023/10/15 09:37:40;;;;;;;11.93;1.77;;;9.30;99.90;;;;;;5136196;27;20030;-82
2023/10/15 09:40:10;;;;;;;4.75;1.70;;;9.40;99.90;;;;;;5129332;27;20027;-83
2023/10/15 09:42:38;;;;;;;8.57;1.80;;;9.40;99.90;;;;;;5129916;27;20023;-85
2023/10/15 09:45:06;;;;;;;11.57;2.10;;;9.40;99.90;;;;;;5121756;27;20042;-84
2023/10/15 09:47:39;;;;;;;8.45;1.70;;;9.50;99.90;;;;;;5131909;27;20034;-86
2023/10/15 09:50:15;;;;;;;8.65;1.45;;;9.60;99.90;;;;;;5127828;27;20031;-84
2023/10/15 09:53:01;;;;;;;7.15;1.70;;;9.70;99.90;;;;;;5133856;27;20035;-84
2023/10/15 09:55:29;;;;;;;9.90;2.03;;;9.80;99.90;;;;;;5127836;27;20024;-83
2023/10/15 09:58:01;;;;;;;3.75;1.23;;;9.80;99.90;;;;;;5124272;27;20059;-85
2023/10/15 10:03:48;;;;;;;8.63;1.67;;;9.60;99.90;;;;;;5124485;27;20038;-84
2023/10/15 10:06:51;;;;;;;5.15;1.65;;;9.70;99.90;;;;;;5126449;27;20298;-83
2023/10/15 10:09:38;;;;;;;8.63;2.53;;;9.60;99.90;;;;;;5121559;27;20039;-85
2023/10/15 10:12:51;;;;;;;3.80;1.60;;;9.50;99.90;;;;;;5115488;27;20511;-84
2023/10/15 10:15:42;;;;;;;8.85;1.83;;;9.50;99.90;;;;;;5117351;27;20023;-84
2023/10/15 10:18:12;;;;;;;9.85;1.70;;;9.50;99.90;;;;;;5129343;27;20361;-84
2023/10/15 10:20:38;;;;;;;8.18;2.08;;;9.50;99.90;;;;;;5106525;27;20479;-83
2023/10/15 10:23:06;;;;;;;7.45;2.33;;;9.40;99.90;;;;;;5126959;27;20118;-89
2023/10/15 10:25:45;;;;;;;6.63;1.92;;;9.40;99.90;;;;;;5130187;27;20031;-86
2023/10/15 10:28:16;;;;;;;9.93;1.67;;;9.40;99.90;;;;;;5123168;27;20364;-86
2023/10/15 10:30:55;;;;;;;3.97;1.50;;;9.40;99.90;;;;;;5122766;27;20051;-83
2023/10/15 10:33:43;;;;;;;7.38;2.05;;;9.40;99.90;;;;;;5120189;27;20086;-85
2023/10/15 10:36:13;;;;;;;8.85;1.88;;;9.40;99.90;;;;;;5129239;27;20026;-86
2023/10/15 10:38:40;;;;;;;3.47;1.30;;;9.40;99.90;;;;;;5119830;27;20060;-84
2023/10/15 10:41:13;;;;;;;5.25;1.50;;;9.40;99.90;;;;;;5132241;27;20110;-83
2023/10/15 10:43:42;;;;;;;8.57;1.35;;;9.50;99.90;;;;;;5114575;27;20509;-86
2023/10/15 10:46:19;;;;;;;19.30;2.50;;;9.60;99.90;;;;;;5126517;27;20023;-87
2023/10/15 10:49:01;;;;;;;3.35;1.10;;;9.70;99.90;;;;;;5131683;27;20049;-87
2023/10/15 10:51:30;;;;;;;7.65;1.55;;;9.80;99.90;;;;;;5116821;27;20027;-84
2023/10/15 10:53:56;;;;;;;8.05;1.60;;;9.80;99.90;;;;;;5129984;27;20035;-91
2023/10/15 10:56:22;;;;;;;7.38;1.63;;;9.80;99.90;;;;;;5109756;27;20016;-83
2023/10/15 10:58:51;;;;;;;5.05;1.42;;;9.80;99.90;;;;;;5133828;27;20473;-84
2023/10/15 11:01:17;;;;;;;7.75;1.63;;;9.70;99.90;;;;;;5128830;27;20030;-85
2023/10/15 11:03:44;;;;;;;4.93;1.67;;;9.60;99.90;;;;;;5132009;27;20043;-84
2023/10/15 11:06:10;;;;;;;4.40;1.35;;;9.60;99.90;;;;;;5131525;27;20039;-85
2023/10/15 11:08:35;;;;;;;2.97;0.95;;;9.60;99.90;;;;;;5125413;27;20043;-89
2023/10/15 11:11:02;;;;;;;11.82;1.42;;;9.70;99.90;;;;;;5125221;27;20027;-83
2023/10/15 11:13:28;;;;;;;2.25;0.88;;;9.80;99.90;;;;;;5118267;27;20042;-82
2023/10/15 11:15:54;;;;;;;3.22;1.10;;;9.90;99.90;;;;;;5121259;27;20553;-86
2023/10/15 11:18:23;;;;;;;2.63;0.85;;;10.00;99.90;;;;;;5119231;27;20031;-83
2023/10/15 11:20:51;;;;;;;4.90;1.13;;;10.00;99.90;;;;;;5122868;27;20043;-83
2023/10/15 11:23:18;;;;;;;6.93;1.05;;;9.90;99.90;;;;;;5110055;27;20027;-85
2023/10/15 11:25:44;;;;;;;6.97;1.17;;;9.90;99.90;;;;;;5130463;27;20075;-85
2023/10/15 11:28:12;;;;;;;6.05;1.48;;;9.80;99.90;;;;;;5125214;27;20031;-86
2023/10/15 11:30:41;;;;;;;4.38;0.95;;;9.80;99.90;;;;;;5126809;27;20029;-85
2023/10/15 11:33:11;;;;;;;9.98;1.27;;;9.80;99.90;;;;;;5119937;27;20571;-83
2023/10/15 11:35:38;;;;;;;9.57;1.67;;;9.80;99.90;;;;;;5136216;27;20027;-83
2023/10/15 11:38:10;;;;;;;5.13;1.33;;;9.90;99.90;;;;;;5128693;27;20111;-85
2023/10/15 11:40:37;;;;;;;4.57;1.50;;;9.90;99.90;;;;;;5118404;27;20023;-94
2023/10/15 11:43:08;;;;;;;3.58;1.08;;;10.00;99.90;;;;;;5120395;27;20460;-85
2023/10/15 11:45:37;;;;;;;7.00;1.60;;;9.90;99.90;;;;;;5119448;27;20132;-85
2023/10/15 11:48:04;;;;;;;4.13;1.20;;;9.90;99.90;;;;;;5125872;27;20033;-84
2023/10/15 11:50:30;;;;;;;1.10;0.73;;;9.90;99.90;;;;;;5121707;27;20023;-84
2023/10/15 11:53:03;;;;;;;6.05;1.17;;;10.00;99.90;;;;;;5123620;27;20039;-85
2023/10/15 11:55:31;;;;;;;6.43;1.45;;;10.00;99.90;;;;;;5134374;27;20356;-87
2023/10/15 11:58:05;;;;;;;3.70;1.20;;;10.10;99.90;;;;;;5127414;27;20031;-86
2023/10/15 12:00:31;;;;;;;4.20;0.98;;;10.20;99.90;;;;;;5122147;27;20064;-85
2023/10/15 12:03:01;;;;;;;3.40;1.48;;;10.40;99.90;;;;;;5125018;27;20440;-85
2023/10/15 12:05:31;;;;;;;5.75;1.50;;;10.50;99.90;;;;;;5123771;27;20027;-83
2023/10/15 12:08:03;;;;;;;2.30;1.23;;;10.50;99.90;;;;;;5133221;27;20055;-85
2023/10/15 12:10:28;;;;;;;4.55;1.42;;;10.50;99.90;;;;;;5130291;27;20053;-83
2023/10/15 12:12:54;;;;;;;3.33;0.90;;;10.60;99.90;;;;;;5137870;27;20402;-84
2023/10/15 12:15:21;;;;;;;3.13;1.10;;;10.50;99.90;;;;;;5131214;27;20108;-87
2023/10/15 12:17:47;;;;;;;6.00;1.48;;;10.50;99.90;;;;;;5123237;27;20070;-85
2023/10/15 12:20:13;;;;;;;2.60;0.85;;;10.50;99.90;;;;;;5140616;27;20042;-84
2023/10/15 12:22:41;;;;;;;1.70;0.75;;;10.30;99.90;;;;;;5128480;27;20647;-86
2023/10/15 12:25:07;;;;;;;3.47;1.13;;;10.10;99.90;;;;;;5128994;27;20086;-83
2023/10/15 12:27:33;;;;;;;4.35;1.10;;;9.90;99.90;;;;;;5127988;27;20043;-83
2023/10/15 12:30:03;;;;;;;3.17;1.27;;;9.80;99.90;;;;;;5106542;27;20475;-84
2023/10/15 12:32:29;;;;;;;4.95;1.10;;;9.60;99.90;;;;;;5137244;27;20646;-85
2023/10/15 12:34:56;;;;;;;2.80;1.00;;;9.50;99.90;;;;;;5134617;27;20030;-83
2023/10/15 12:37:29;;;;;;;3.42;1.00;;;9.40;99.90;;;;;;5126614;27;20027;-85
2023/10/15 12:39:55;;;;;;;3.25;1.02;;;9.30;99.90;;;;;;5128161;27;20051;-86
2023/10/15 12:42:21;;;;;;;5.20;1.20;;;9.30;99.90;;;;;;5121959;27;20304;-87
2023/10/15 12:44:47;;;;;;;2.97;1.20;;;9.40;99.90;;;;;;5123925;27;20711;-84
2023/10/15 12:47:13;;;;;;;3.38;1.40;;;9.50;99.90;;;;;;5123132;27;20102;-84
2023/10/15 12:49:39;;;;;;;3.17;1.00;;;9.60;99.90;;;;;;5117450;27;20526;-86
2023/10/15 12:52:08;;;;;;;4.90;1.48;;;9.60;99.90;;;;;;5112077;27;20387;-85
2023/10/15 12:54:34;;;;;;;7.72;1.45;;;9.80;99.90;;;;;;5113796;27;20478;-87
2023/10/15 12:57:00;;;;;;;2.97;1.27;;;9.80;99.90;;;;;;5126909;27;20400;-87
2023/10/15 12:59:26;;;;;;;4.50;1.20;;;9.80;99.90;;;;;;5124213;27;20034;-81
2023/10/15 13:01:52;;;;;;;3.90;1.30;;;9.90;99.90;;;;;;5125986;27;20060;-85
2023/10/15 13:04:21;;;;;;;4.25;1.10;;;10.00;99.90;;;;;;5114412;27;20118;-88
2023/10/15 13:06:47;;;;;;;6.53;1.33;;;10.10;99.90;;;;;;5126220;27;20019;-85
2023/10/15 13:09:19;;;;;;;3.30;0.88;;;10.30;99.90;;;;;;5129212;27;20046;-83
2023/10/15 13:11:45;;;;;;;5.80;1.48;;;10.40;99.90;;;;;;5127580;27;20473;-85
2023/10/15 13:14:10;;;;;;;4.72;0.85;;;10.40;99.90;;;;;;5125614;27;20019;-86
2023/10/15 13:16:36;;;;;;;6.70;1.52;;;10.20;99.90;;;;;;5129278;27;20121;-87
2023/10/15 13:19:04;;;;;;;3.38;1.45;;;10.00;99.90;;;;;;5131921;27;20026;-89
2023/10/15 13:21:31;;;;;;;4.13;2.25;;;9.90;99.90;;;;;;5108264;27;20034;-87
2023/10/15 13:23:57;;;;;;;7.45;4.00;;;9.80;99.90;;;;;;5126995;27;20043;-87
2023/10/15 13:26:24;;;;;;;12.20;3.22;;;9.60;99.90;;;;;;5132985;27;20033;-87
2023/10/15 13:28:51;;;;;;;5.95;3.72;;;9.50;99.90;;;;;;5131136;27;20023;-89
2023/10/15 13:31:17;;;;;;;5.82;2.00;;;9.40;99.90;;;;;;5127598;27;20103;-87
2023/10/15 13:33:43;;;;;;;7.05;1.73;;;9.30;99.90;;;;;;5127803;27;20200;-86